Terminal Aerodrome Forecast
Issued by NWS

Home | Current Version | Previous Version | Text Only | Print | Product List | Glossary On
Versions: 1 2 3 4 5 6 7 8 9 10 11 12 13 14 15 16 17 18 19 20 21 22 23
161
FTUS43 KBIS 260742 AAA
TAFJMS
TAF AMD
KJMS 260742Z 2608/2706 33017G22KT P6SM BKN013 BKN021
     FM260900 36006KT P6SM OVC025
     FM261100 36009KT P6SM BKN035
     FM261700 27006KT P6SM SCT140=

USA.gov is the U.S. government's official web portal to all federal, state and local government web resources and services.